Airfield :
LOGIN :

Register | Disclaimer

   EN    FR    IT 

 










Legend :    VFR   Marginal VFR   IFR   Intensive IFR   Very Intensive IFR
Visi :
Ceiling :
>= 8 km
>= 3000ft
5 to 8 km
1000 to 3000 ft
1500m to 5 km
500 to 1000 ft
800 to 1500m
200 to 500 ft
< 800m
< 200 ft
Symbols :   Thunderstorms  Fog  Heavy snow  Heavy precipitations  Wind > 20 kt
SIGMETs :     Misc.  Thunderstorms  Icing  Turbulence  Mountain Waves  Volcanic Ashes







- Airport Elevation : 82 ft
- IATA code : AAR


EKAH - Aarhus Tirstrup

CURRENT METAR :
  • 230520Z AUTO 26009KT 220V280 9999NDV BKN007/// 18/17 Q1019

EXPIRED METARs :
  • 230450Z AUTO 26007KT 9000NDV BKN006/// 17/17 Q1019
  • 230420Z AUTO 25007KT 220V290 9000NDV SCT006/// 17/17 Q1019
  • 230350Z AUTO 25006KT 220V280 9000NDV FEW007/// 17/17 Q1018
  • 230320Z AUTO 25007KT 8000NDV SCT006/// 17/17 Q1018
  • 230250Z AUTO 25006KT 220V280 8000NDV BKN006/// BKN033/// 17/17 Q1018

TAF TAF EKAH
Valid from the 23 at 06:00 until the 24 at 06:00 UTC


230508Z 2306/2406 27010KT 9999 FEW006
TEMPO 2306/2308 1500 BR BCFG BKN003
BECMG 2318/2320 VRB02KT
BECMG 2322/2324 0200 FG VV001
TEMPO 2400/2405 2500 BCFG SCT001
BECMG 2405/2406 9999 NSW FEW004
No reported NOTAMs for that airfield.



MET'MAP, your aeronautical weather chart ! - Copyright ORBIFLY December 2007 - Disclaimer

ORBIFLY MET'MAP TEAM :

Programming & Development : Alexandra Zaïnal
Concept & Development : Baudouin d'Aumeries
Co-Development & Prog : Marc-Olivier Méhu
Technical & hardware support : Manuel Goepfert

Contact : metmap@orbifly.com




SOURCES & CREDITS :

   NOAA